Time;durP1;ratioP1;P1;durP2;ratioP2;P2;SDS_P1;SDS_P2;PMS_P1;PMS_P2;Temp;Humidity;BMP_temperature;BMP_pressure;BME280_temperature;BME280_humidity;BME280_pressure;Samples;Min_cycle;Max_cycle;Signal;HPM_P1;HPM_P2
2023/05/03 00:00:23;;;;;;;11.45;10.35;;;;;;;;;;5002313;28;20612;-63
2023/05/03 00:02:50;;;;;;;12.60;10.77;;;;;;;;;;5001469;28;20034;-63
2023/05/03 00:05:16;;;;;;;11.50;10.35;;;;;;;;;;5002656;28;20025;-62
2023/05/03 00:07:42;;;;;;;12.75;11.50;;;;;;;;;;5001763;28;20033;-63
2023/05/03 00:10:09;;;;;;;11.75;10.55;;;;;;;;;;5003398;28;20620;-62
2023/05/03 00:12:36;;;;;;;11.10;10.10;;;;;;;;;;5004076;28;20073;-62
2023/05/03 00:15:02;;;;;;;11.18;10.13;;;;;;;;;;4999241;28;20559;-62
2023/05/03 00:17:27;;;;;;;11.50;10.50;;;;;;;;;;5000281;28;20054;-62
2023/05/03 00:19:55;;;;;;;12.38;10.70;;;;;;;;;;5001394;28;20118;-62
2023/05/03 00:22:21;;;;;;;11.73;9.18;;;;;;;;;;5001369;28;20049;-63
2023/05/03 00:24:48;;;;;;;11.18;10.07;;;;;;;;;;5003641;28;20583;-61
2023/05/03 00:27:14;;;;;;;11.27;10.18;;;;;;;;;;5001248;28;20036;-59
2023/05/03 00:29:39;;;;;;;11.88;10.77;;;;;;;;;;5001054;28;20033;-62
2023/05/03 00:32:05;;;;;;;11.85;10.57;;;;;;;;;;4999375;28;20567;-61
2023/05/03 00:34:30;;;;;;;12.75;11.40;;;;;;;;;;5000825;28;20033;-63
2023/05/03 00:36:56;;;;;;;11.15;10.02;;;;;;;;;;5016947;28;20041;-64
2023/05/03 00:39:21;;;;;;;12.20;10.80;;;;;;;;;;4999845;28;20040;-63
2023/05/03 00:41:47;;;;;;;11.75;10.70;;;;;;;;;;4986821;28;20038;-61
2023/05/03 00:44:13;;;;;;;12.30;11.07;;;;;;;;;;5000063;28;20084;-62
2023/05/03 00:46:39;;;;;;;11.70;10.68;;;;;;;;;;5001908;28;20113;-62
2023/05/03 00:49:05;;;;;;;12.15;11.05;;;;;;;;;;4989998;28;20026;-62
2023/05/03 00:51:31;;;;;;;16.83;10.80;;;;;;;;;;4999178;28;20038;-62
2023/05/03 00:53:57;;;;;;;12.82;11.63;;;;;;;;;;4996995;28;20124;-62
2023/05/03 00:56:23;;;;;;;12.25;11.05;;;;;;;;;;4999947;28;20621;-63
2023/05/03 00:58:51;;;;;;;12.05;10.82;;;;;;;;;;5001952;28;20504;-62
2023/05/03 01:01:17;;;;;;;12.63;11.32;;;;;;;;;;5001921;28;20247;-63
2023/05/03 01:03:45;;;;;;;12.45;10.85;;;;;;;;;;5000927;28;20069;-63
2023/05/03 01:06:19;;;;;;;14.02;12.73;;;;;;;;;;4999041;28;20041;-63
2023/05/03 01:08:58;;;;;;;12.88;11.68;;;;;;;;;;4989204;28;20038;-63
2023/05/03 01:11:43;;;;;;;13.52;12.00;;;;;;;;;;4999410;28;20131;-62
2023/05/03 01:14:17;;;;;;;13.75;12.43;;;;;;;;;;5000050;28;20053;-62
2023/05/03 01:16:46;;;;;;;14.30;12.88;;;;;;;;;;4991978;28;20157;-63
2023/05/03 01:19:25;;;;;;;13.27;11.95;;;;;;;;;;5002571;28;20044;-61
2023/05/03 01:21:58;;;;;;;13.48;12.18;;;;;;;;;;5004542;28;20100;-61
2023/05/03 01:24:25;;;;;;;13.57;12.27;;;;;;;;;;4999302;28;20025;-60
2023/05/03 01:26:50;;;;;;;14.35;13.05;;;;;;;;;;4998928;28;20069;-62
2023/05/03 01:29:16;;;;;;;13.18;11.77;;;;;;;;;;4995621;28;20092;-62
2023/05/03 01:31:50;;;;;;;13.38;12.05;;;;;;;;;;5004590;28;20037;-61
2023/05/03 01:34:15;;;;;;;15.60;14.10;;;;;;;;;;5000293;28;20042;-62
2023/05/03 01:36:44;;;;;;;13.50;12.20;;;;;;;;;;5003659;28;20044;-62
2023/05/03 01:39:16;;;;;;;14.18;12.80;;;;;;;;;;5003516;28;20180;-60
2023/05/03 01:41:41;;;;;;;13.73;12.45;;;;;;;;;;5002250;28;20034;-61
2023/05/03 01:44:08;;;;;;;16.67;12.57;;;;;;;;;;5000156;28;20477;-63
2023/05/03 01:46:33;;;;;;;14.43;13.13;;;;;;;;;;4999472;28;20061;-62
2023/05/03 01:48:58;;;;;;;13.85;12.45;;;;;;;;;;4999116;28;20157;-60
2023/05/03 01:51:24;;;;;;;13.30;11.98;;;;;;;;;;5001938;28;20526;-62
2023/05/03 01:53:50;;;;;;;14.02;12.73;;;;;;;;;;5000594;28;20100;-62
2023/05/03 01:56:15;;;;;;;13.55;12.25;;;;;;;;;;4998590;28;20029;-62
2023/05/03 01:58:41;;;;;;;14.20;12.80;;;;;;;;;;5001365;28;20037;-63
2023/05/03 02:01:06;;;;;;;13.43;12.13;;;;;;;;;;5001793;28;20077;-63
2023/05/03 02:03:32;;;;;;;16.17;14.57;;;;;;;;;;5003960;28;20512;-62
2023/05/03 02:05:57;;;;;;;16.38;14.68;;;;;;;;;;4999080;28;20037;-61
2023/05/03 02:08:23;;;;;;;15.68;14.10;;;;;;;;;;4998647;28;20034;-62
2023/05/03 02:10:48;;;;;;;16.58;14.45;;;;;;;;;;5001252;28;20042;-62
2023/05/03 02:13:15;;;;;;;14.60;13.27;;;;;;;;;;5000559;28;20042;-65
2023/05/03 02:15:40;;;;;;;15.63;13.27;;;;;;;;;;4998638;28;20033;-61
2023/05/03 02:18:07;;;;;;;16.65;15.05;;;;;;;;;;4999395;28;20702;-62
2023/05/03 02:20:36;;;;;;;17.95;16.05;;;;;;;;;;4998089;28;20038;-62
2023/05/03 02:23:02;;;;;;;18.02;15.50;;;;;;;;;;4998876;28;20065;-63
2023/05/03 02:25:28;;;;;;;17.20;15.20;;;;;;;;;;4999206;28;20034;-63
2023/05/03 02:27:53;;;;;;;15.50;13.95;;;;;;;;;;4998683;28;21087;-63
2023/05/03 02:30:18;;;;;;;16.90;15.10;;;;;;;;;;4999219;28;20033;-62
2023/05/03 02:32:45;;;;;;;17.25;15.05;;;;;;;;;;5003432;28;20043;-62
2023/05/03 02:35:10;;;;;;;16.15;14.68;;;;;;;;;;5003208;28;20085;-61
2023/05/03 02:37:36;;;;;;;18.23;16.30;;;;;;;;;;5000028;28;20044;-64
2023/05/03 02:40:08;;;;;;;17.05;15.32;;;;;;;;;;4997123;28;20129;-62
2023/05/03 02:42:33;;;;;;;17.70;16.00;;;;;;;;;;4999007;28;20042;-61
2023/05/03 02:44:59;;;;;;;18.42;16.08;;;;;;;;;;5002948;28;20459;-62
2023/05/03 02:47:25;;;;;;;17.83;15.93;;;;;;;;;;4985844;28;20049;-63
2023/05/03 02:49:51;;;;;;;19.50;17.45;;;;;;;;;;5001888;28;20536;-62
2023/05/03 02:52:17;;;;;;;18.92;17.00;;;;;;;;;;5000155;28;20026;-62
2023/05/03 02:54:42;;;;;;;20.73;18.70;;;;;;;;;;4998885;28;20038;-62
2023/05/03 02:57:11;;;;;;;19.33;17.27;;;;;;;;;;4990654;28;20390;-62
2023/05/03 02:59:37;;;;;;;18.60;16.70;;;;;;;;;;4998569;28;20044;-62
2023/05/03 03:02:02;;;;;;;18.90;16.90;;;;;;;;;;4999244;28;20030;-62
2023/05/03 03:04:29;;;;;;;18.15;16.38;;;;;;;;;;5004189;28;20038;-62
2023/05/03 03:06:55;;;;;;;17.15;15.35;;;;;;;;;;5001268;28;20028;-61
2023/05/03 03:09:21;;;;;;;19.02;16.50;;;;;;;;;;4999252;28;20401;-61
2023/05/03 03:11:46;;;;;;;18.75;16.85;;;;;;;;;;5000302;28;20038;-62
2023/05/03 03:14:13;;;;;;;18.10;15.98;;;;;;;;;;4997661;28;20045;-60
2023/05/03 03:16:39;;;;;;;20.92;16.58;;;;;;;;;;4999831;28;20050;-61
2023/05/03 03:19:04;;;;;;;17.05;15.35;;;;;;;;;;5000419;28;20044;-61
2023/05/03 03:21:31;;;;;;;18.65;16.60;;;;;;;;;;4999506;28;20453;-63
2023/05/03 03:23:57;;;;;;;17.02;15.20;;;;;;;;;;5000113;28;20026;-62
2023/05/03 03:26:23;;;;;;;16.77;15.05;;;;;;;;;;5004512;28;20042;-62
2023/05/03 03:28:50;;;;;;;20.95;15.85;;;;;;;;;;5002162;28;20157;-62
2023/05/03 03:31:17;;;;;;;15.82;13.75;;;;;;;;;;4988339;28;20041;-62
2023/05/03 03:33:43;;;;;;;18.10;16.30;;;;;;;;;;5000401;28;20117;-63
2023/05/03 03:36:14;;;;;;;17.48;15.70;;;;;;;;;;4986339;28;20041;-62
2023/05/03 03:38:42;;;;;;;17.50;15.63;;;;;;;;;;5001549;28;20455;-62
2023/05/03 03:41:09;;;;;;;17.20;15.40;;;;;;;;;;5005303;28;20267;-63
2023/05/03 03:43:35;;;;;;;17.15;15.35;;;;;;;;;;5004197;28;20055;-64
2023/05/03 03:46:04;;;;;;;16.52;13.82;;;;;;;;;;4973373;28;20069;-62
2023/05/03 03:48:29;;;;;;;18.05;16.13;;;;;;;;;;5002436;28;20120;-61
2023/05/03 03:50:55;;;;;;;17.60;14.95;;;;;;;;;;5004527;28;20046;-68
2023/05/03 03:53:25;;;;;;;18.42;16.60;;;;;;;;;;5006344;28;20050;-65
2023/05/03 03:55:50;;;;;;;16.73;15.02;;;;;;;;;;4999020;28;20026;-63
2023/05/03 03:58:16;;;;;;;17.50;15.48;;;;;;;;;;5004510;28;20042;-64
2023/05/03 04:00:42;;;;;;;16.55;14.85;;;;;;;;;;4991405;28;20046;-64
2023/05/03 04:03:13;;;;;;;16.58;14.85;;;;;;;;;;4993130;28;20394;-64
2023/05/03 04:05:38;;;;;;;15.88;14.38;;;;;;;;;;5000836;28;20047;-64
2023/05/03 04:08:04;;;;;;;16.73;14.75;;;;;;;;;;5006982;28;20129;-62
2023/05/03 04:10:32;;;;;;;16.48;14.88;;;;;;;;;;4986162;28;20122;-64
2023/05/03 04:12:57;;;;;;;17.20;15.38;;;;;;;;;;5002169;28;20079;-63
2023/05/03 04:15:23;;;;;;;17.40;15.50;;;;;;;;;;5001539;28;20049;-64
2023/05/03 04:17:49;;;;;;;18.73;15.05;;;;;;;;;;4975836;28;20539;-64
2023/05/03 04:20:16;;;;;;;16.10;14.48;;;;;;;;;;5005365;28;20598;-63
2023/05/03 04:22:45;;;;;;;16.27;14.05;;;;;;;;;;5005279;28;20551;-62
2023/05/03 04:25:15;;;;;;;16.08;14.40;;;;;;;;;;4988843;28;20615;-63
2023/05/03 04:27:45;;;;;;;15.77;13.50;;;;;;;;;;5005500;28;20044;-65
2023/05/03 04:30:14;;;;;;;15.88;14.15;;;;;;;;;;5001625;28;20043;-64
2023/05/03 04:32:41;;;;;;;15.80;14.27;;;;;;;;;;5006354;28;20037;-65
2023/05/03 04:35:11;;;;;;;16.83;14.27;;;;;;;;;;5004249;28;20057;-63
2023/05/03 04:37:40;;;;;;;15.73;14.02;;;;;;;;;;5002892;28;20583;-64
2023/05/03 04:40:11;;;;;;;14.73;13.35;;;;;;;;;;5001091;28;20034;-64
2023/05/03 04:42:41;;;;;;;22.98;14.20;;;;;;;;;;5002319;28;20496;-64
2023/05/03 04:45:08;;;;;;;15.07;13.48;;;;;;;;;;5003759;28;20037;-64
2023/05/03 04:47:34;;;;;;;16.88;15.07;;;;;;;;;;5005191;28;20222;-69
2023/05/03 04:50:00;;;;;;;15.95;14.30;;;;;;;;;;5003282;28;20045;-64
2023/05/03 04:52:26;;;;;;;17.05;15.35;;;;;;;;;;5005758;28;20145;-64
2023/05/03 04:54:54;;;;;;;16.55;14.88;;;;;;;;;;5004347;28;20042;-64
2023/05/03 04:57:20;;;;;;;15.65;14.00;;;;;;;;;;4989564;28;20065;-63
2023/05/03 04:59:45;;;;;;;17.00;15.30;;;;;;;;;;5001915;28;20120;-65
2023/05/03 05:02:11;;;;;;;17.83;15.38;;;;;;;;;;4990152;28;20103;-65
2023/05/03 05:04:36;;;;;;;17.40;15.60;;;;;;;;;;5001027;28;20480;-69
2023/05/03 05:07:02;;;;;;;18.80;16.90;;;;;;;;;;4999174;28;20034;-69
2023/05/03 05:09:30;;;;;;;18.60;16.02;;;;;;;;;;5003200;28;20038;-66
2023/05/03 05:11:58;;;;;;;17.38;15.50;;;;;;;;;;5002506;28;20489;-63
2023/05/03 05:14:28;;;;;;;18.05;16.15;;;;;;;;;;5004925;28;20060;-61
2023/05/03 05:16:54;;;;;;;18.15;16.13;;;;;;;;;;5001038;28;20057;-63
2023/05/03 05:19:20;;;;;;;17.75;15.90;;;;;;;;;;5004229;28;20520;-61
2023/05/03 05:21:46;;;;;;;17.90;16.13;;;;;;;;;;4989293;28;20034;-61
2023/05/03 05:24:13;;;;;;;18.10;16.30;;;;;;;;;;5000324;28;20844;-62
2023/05/03 05:26:41;;;;;;;17.27;15.45;;;;;;;;;;5001213;28;20298;-63
2023/05/03 05:29:08;;;;;;;16.88;15.20;;;;;;;;;;4997578;28;20026;-62
2023/05/03 05:31:34;;;;;;;19.60;16.58;;;;;;;;;;4999909;28;20409;-61
2023/05/03 05:34:00;;;;;;;17.85;15.52;;;;;;;;;;5016209;28;20412;-61
2023/05/03 05:36:26;;;;;;;17.52;15.82;;;;;;;;;;4998452;28;20105;-62
2023/05/03 05:38:52;;;;;;;16.33;14.70;;;;;;;;;;5001732;28;20080;-61
2023/05/03 05:41:17;;;;;;;16.95;15.20;;;;;;;;;;4989335;28;20042;-62
2023/05/03 05:43:43;;;;;;;20.55;16.65;;;;;;;;;;4999627;28;20120;-63
2023/05/03 05:46:10;;;;;;;16.80;15.13;;;;;;;;;;5001133;28;20327;-62
2023/05/03 05:48:36;;;;;;;17.20;15.38;;;;;;;;;;5001325;28;20068;-60
2023/05/03 05:51:02;;;;;;;17.55;15.35;;;;;;;;;;5001692;28;20034;-62
2023/05/03 05:53:27;;;;;;;21.05;14.73;;;;;;;;;;5005225;28;20038;-63
2023/05/03 05:55:57;;;;;;;17.30;15.60;;;;;;;;;;5005376;28;20099;-63
2023/05/03 05:58:24;;;;;;;15.75;14.10;;;;;;;;;;5000938;28;20086;-64
2023/05/03 06:00:56;;;;;;;16.27;14.63;;;;;;;;;;5004695;28;20046;-63
2023/05/03 06:03:22;;;;;;;16.05;14.32;;;;;;;;;;5004246;28;20042;-61
2023/05/03 06:05:49;;;;;;;14.73;13.20;;;;;;;;;;5001906;28;20052;-64
2023/05/03 06:08:15;;;;;;;16.80;15.10;;;;;;;;;;5000965;28;20068;-61
2023/05/03 06:10:41;;;;;;;15.55;13.48;;;;;;;;;;5003857;28;20625;-63
2023/05/03 06:13:06;;;;;;;15.38;13.77;;;;;;;;;;5001622;28;20074;-63
2023/05/03 06:15:33;;;;;;;15.68;13.77;;;;;;;;;;4976118;28;20531;-63
2023/05/03 06:17:58;;;;;;;16.58;14.98;;;;;;;;;;5001751;28;20585;-62
2023/05/03 06:20:24;;;;;;;13.88;12.48;;;;;;;;;;5002265;28;20038;-62
2023/05/03 06:22:50;;;;;;;15.57;14.05;;;;;;;;;;4999741;28;20042;-62
2023/05/03 06:25:16;;;;;;;16.08;14.48;;;;;;;;;;5004921;28;20504;-62
2023/05/03 06:27:43;;;;;;;15.50;14.00;;;;;;;;;;4998517;28;20064;-61
2023/05/03 06:30:10;;;;;;;15.07;13.48;;;;;;;;;;4999611;28;20041;-62
2023/05/03 06:32:37;;;;;;;15.15;13.52;;;;;;;;;;5004265;28;20048;-62
2023/05/03 06:35:02;;;;;;;16.90;15.20;;;;;;;;;;4998601;28;20064;-63
2023/05/03 06:37:28;;;;;;;16.52;12.98;;;;;;;;;;5002255;28;20152;-63
2023/05/03 06:39:54;;;;;;;15.02;13.40;;;;;;;;;;5005307;28;20523;-62
2023/05/03 06:42:19;;;;;;;16.52;14.85;;;;;;;;;;5002498;28;20035;-63
2023/05/03 06:44:45;;;;;;;14.95;13.38;;;;;;;;;;4983758;28;20037;-63
2023/05/03 06:47:12;;;;;;;15.73;14.13;;;;;;;;;;5004104;28;20034;-62
2023/05/03 06:49:37;;;;;;;15.45;13.73;;;;;;;;;;5002427;28;20037;-60
2023/05/03 06:52:05;;;;;;;15.52;13.93;;;;;;;;;;4999600;28;20041;-61
2023/05/03 06:54:31;;;;;;;14.65;13.13;;;;;;;;;;5002188;28;20587;-62
2023/05/03 06:56:57;;;;;;;14.02;12.70;;;;;;;;;;5001095;28;20029;-60
2023/05/03 06:59:23;;;;;;;16.35;13.90;;;;;;;;;;4988400;28;20101;-60
2023/05/03 07:01:49;;;;;;;14.45;12.90;;;;;;;;;;4997368;28;20081;-61
2023/05/03 07:04:15;;;;;;;15.32;13.77;;;;;;;;;;5002842;28;20315;-60
2023/05/03 07:06:41;;;;;;;15.65;14.07;;;;;;;;;;5000860;28;20096;-60
2023/05/03 07:09:07;;;;;;;14.35;12.88;;;;;;;;;;4998337;28;20440;-58
2023/05/03 07:11:33;;;;;;;18.90;14.63;;;;;;;;;;5003712;28;20511;-60
2023/05/03 07:13:58;;;;;;;15.85;14.25;;;;;;;;;;5005163;28;20104;-60
2023/05/03 07:16:24;;;;;;;14.43;12.95;;;;;;;;;;5005051;28;20545;-59
2023/05/03 07:18:49;;;;;;;14.02;12.73;;;;;;;;;;5002803;28;20049;-59
2023/05/03 07:21:15;;;;;;;14.75;13.18;;;;;;;;;;4999511;28;20141;-60
2023/05/03 07:23:40;;;;;;;15.40;14.00;;;;;;;;;;5001859;28;20037;-60
2023/05/03 07:26:06;;;;;;;14.13;12.73;;;;;;;;;;5005060;28;20578;-59
2023/05/03 07:28:32;;;;;;;16.00;13.48;;;;;;;;;;5000162;28;20045;-59
2023/05/03 07:30:58;;;;;;;15.85;13.38;;;;;;;;;;5004029;28;20460;-60
2023/05/03 07:33:24;;;;;;;15.57;14.07;;;;;;;;;;5003016;28;20396;-64
2023/05/03 07:35:49;;;;;;;15.23;13.82;;;;;;;;;;5004579;28;20041;-64
2023/05/03 07:38:16;;;;;;;15.27;13.68;;;;;;;;;;5001049;28;20447;-65
2023/05/03 07:40:41;;;;;;;17.50;13.90;;;;;;;;;;5002787;28;20440;-65
2023/05/03 07:43:11;;;;;;;15.07;13.57;;;;;;;;;;5001777;28;20034;-60
2023/05/03 07:45:36;;;;;;;16.45;14.43;;;;;;;;;;5001610;28;20072;-62
2023/05/03 07:48:03;;;;;;;15.60;14.07;;;;;;;;;;5001837;28;20042;-62
2023/05/03 07:50:29;;;;;;;14.98;13.55;;;;;;;;;;5002206;28;20044;-61
2023/05/03 07:52:55;;;;;;;14.77;13.23;;;;;;;;;;5000934;28;20063;-62
2023/05/03 07:55:20;;;;;;;14.85;13.45;;;;;;;;;;5001116;28;20467;-61
2023/05/03 07:57:46;;;;;;;14.25;12.85;;;;;;;;;;5002586;28;20328;-61
2023/05/03 08:00:12;;;;;;;14.57;13.18;;;;;;;;;;5000165;28;20534;-64
2023/05/03 08:02:40;;;;;;;14.48;12.95;;;;;;;;;;5002092;28;20048;-61
2023/05/03 08:05:08;;;;;;;14.18;12.77;;;;;;;;;;5001551;28;20093;-61
2023/05/03 08:07:34;;;;;;;13.95;12.52;;;;;;;;;;5001232;28;20121;-63
2023/05/03 08:10:00;;;;;;;14.32;13.05;;;;;;;;;;5003383;28;20095;-61
2023/05/03 08:12:25;;;;;;;12.77;11.48;;;;;;;;;;5001476;28;20037;-62
2023/05/03 08:14:51;;;;;;;12.50;11.27;;;;;;;;;;5001290;28;20304;-61
2023/05/03 08:17:17;;;;;;;12.30;11.30;;;;;;;;;;5002758;28;20101;-63
2023/05/03 08:19:43;;;;;;;13.25;11.90;;;;;;;;;;4999618;28;20472;-62
2023/05/03 08:22:11;;;;;;;15.32;13.80;;;;;;;;;;5001972;28;20464;-62
2023/05/03 08:24:37;;;;;;;13.52;12.30;;;;;;;;;;5002212;28;20029;-60
2023/05/03 08:27:03;;;;;;;14.00;12.70;;;;;;;;;;5004299;28;20452;-60
2023/05/03 08:29:29;;;;;;;13.77;11.80;;;;;;;;;;5001964;28;20133;-63
2023/05/03 08:31:54;;;;;;;13.13;11.82;;;;;;;;;;5005565;28;20483;-63
2023/05/03 08:34:19;;;;;;;19.67;15.40;;;;;;;;;;5001651;28;20066;-63
2023/05/03 08:36:45;;;;;;;14.40;12.93;;;;;;;;;;5004126;28;20034;-62
2023/05/03 08:39:10;;;;;;;15.55;13.70;;;;;;;;;;5002052;28;20052;-62
2023/05/03 08:41:38;;;;;;;13.63;12.23;;;;;;;;;;5001383;28;20056;-61
2023/05/03 08:44:05;;;;;;;14.15;12.80;;;;;;;;;;5003653;28;20080;-61
2023/05/03 08:46:30;;;;;;;15.32;13.75;;;;;;;;;;5004931;28;20030;-62
2023/05/03 08:48:57;;;;;;;17.00;13.48;;;;;;;;;;4998071;28;20501;-60
2023/05/03 08:51:23;;;;;;;15.02;13.63;;;;;;;;;;5002380;28;20129;-61
2023/05/03 08:53:49;;;;;;;12.57;11.27;;;;;;;;;;5001567;28;20042;-61
2023/05/03 08:56:34;;;;;;;12.55;11.25;;;;;;;;;;5000781;28;20133;-61
2023/05/03 08:59:07;;;;;;;13.32;12.02;;;;;;;;;;5000590;28;20061;-61
2023/05/03 09:01:34;;;;;;;12.88;11.68;;;;;;;;;;5000554;28;20103;-61
2023/05/03 09:04:00;;;;;;;12.70;11.43;;;;;;;;;;5002430;28;20118;-59
2023/05/03 09:06:26;;;;;;;13.07;11.70;;;;;;;;;;5003162;28;20361;-61
2023/05/03 09:08:52;;;;;;;11.55;9.77;;;;;;;;;;5001371;28;20462;-60
2023/05/03 09:11:20;;;;;;;11.18;10.07;;;;;;;;;;5000415;28;20496;-60
2023/05/03 09:13:46;;;;;;;12.65;10.65;;;;;;;;;;4998882;28;20073;-60
2023/05/03 09:16:20;;;;;;;11.57;10.13;;;;;;;;;;5000934;28;20489;-60
2023/05/03 09:18:55;;;;;;;10.55;9.55;;;;;;;;;;4999902;28;20031;-61
2023/05/03 09:21:21;;;;;;;9.77;8.68;;;;;;;;;;4999374;28;20025;-61
2023/05/03 09:23:46;;;;;;;11.45;9.50;;;;;;;;;;4999430;28;20607;-62
2023/05/03 09:26:26;;;;;;;11.43;10.32;;;;;;;;;;5000128;28;20089;-63
2023/05/03 09:28:52;;;;;;;10.27;9.35;;;;;;;;;;5002870;28;20584;-61
2023/05/03 09:31:17;;;;;;;12.02;10.82;;;;;;;;;;5000386;28;20109;-61
2023/05/03 09:33:43;;;;;;;11.02;9.52;;;;;;;;;;5000414;28;20452;-70
2023/05/03 09:36:08;;;;;;;12.07;10.68;;;;;;;;;;5001852;28;20096;-61
2023/05/03 09:38:35;;;;;;;10.63;9.73;;;;;;;;;;5002177;28;20037;-61
2023/05/03 09:41:01;;;;;;;9.88;8.88;;;;;;;;;;5000354;28;20046;-62
2023/05/03 09:43:27;;;;;;;9.80;8.95;;;;;;;;;;5003529;28;20133;-62
2023/05/03 09:46:06;;;;;;;10.25;9.05;;;;;;;;;;5001187;28;20032;-61
2023/05/03 09:48:31;;;;;;;10.20;9.20;;;;;;;;;;5000664;28;20048;-61
2023/05/03 09:50:57;;;;;;;10.65;9.65;;;;;;;;;;5002759;28;20054;-63
2023/05/03 09:53:23;;;;;;;12.35;9.98;;;;;;;;;;4999357;28;20132;-60
2023/05/03 09:55:49;;;;;;;10.63;9.52;;;;;;;;;;5000918;28;20038;-61
2023/05/03 09:58:17;;;;;;;9.48;8.57;;;;;;;;;;5001633;28;20042;-61
2023/05/03 10:00:45;;;;;;;9.13;8.23;;;;;;;;;;5001296;28;20576;-60
2023/05/03 10:03:14;;;;;;;8.63;7.82;;;;;;;;;;5003053;28;20034;-65
2023/05/03 10:05:45;;;;;;;9.55;8.75;;;;;;;;;;5001339;28;20564;-60
2023/05/03 10:08:13;;;;;;;8.07;7.28;;;;;;;;;;5002868;28;20045;-63
2023/05/03 10:10:42;;;;;;;9.23;7.75;;;;;;;;;;4999953;28;20164;-64
2023/05/03 10:13:08;;;;;;;8.95;8.07;;;;;;;;;;4998888;28;20091;-64
2023/05/03 10:15:34;;;;;;;7.78;6.82;;;;;;;;;;5001089;28;20225;-61
2023/05/03 10:18:00;;;;;;;8.80;7.90;;;;;;;;;;5000393;28;20061;-62
2023/05/03 10:20:27;;;;;;;8.88;7.97;;;;;;;;;;5001251;28;20033;-61
2023/05/03 10:23:09;;;;;;;13.80;11.02;;;;;;;;;;4999137;28;20117;-61
2023/05/03 10:25:37;;;;;;;7.53;6.53;;;;;;;;;;5000251;28;20125;-62
2023/05/03 10:28:04;;;;;;;7.05;6.45;;;;;;;;;;5007009;28;20125;-64
2023/05/03 10:30:31;;;;;;;7.50;6.63;;;;;;;;;;5000245;28;20284;-66
2023/05/03 10:32:57;;;;;;;6.60;6.00;;;;;;;;;;4997022;28;20045;-65
2023/05/03 10:35:26;;;;;;;6.82;6.22;;;;;;;;;;4999779;28;20045;-65
2023/05/03 10:37:53;;;;;;;7.97;6.30;;;;;;;;;;5001410;28;20062;-66
2023/05/03 10:40:20;;;;;;;7.95;7.13;;;;;;;;;;4999378;28;20030;-66
2023/05/03 10:42:51;;;;;;;6.97;6.38;;;;;;;;;;5003800;28;20042;-66
2023/05/03 10:45:21;;;;;;;6.10;5.50;;;;;;;;;;5000215;28;20084;-64
2023/05/03 10:48:06;;;;;;;6.53;6.00;;;;;;;;;;5001428;28;20037;-66
2023/05/03 10:50:31;;;;;;;9.43;6.03;;;;;;;;;;5002976;28;20042;-66
2023/05/03 10:52:57;;;;;;;6.47;5.15;;;;;;;;;;5000703;28;20065;-67
2023/05/03 10:55:23;;;;;;;6.75;5.95;;;;;;;;;;5003777;28;20037;-66
2023/05/03 10:57:52;;;;;;;6.63;6.00;;;;;;;;;;5020770;28;20081;-64
2023/05/03 11:00:22;;;;;;;5.72;5.20;;;;;;;;;;5001844;28;20025;-62
2023/05/03 11:02:53;;;;;;;6.22;5.72;;;;;;;;;;5004514;28;20029;-61
2023/05/03 11:05:20;;;;;;;8.13;5.65;;;;;;;;;;5003474;28;20033;-62
2023/05/03 11:07:45;;;;;;;6.30;5.70;;;;;;;;;;5003672;28;20593;-63
2023/05/03 11:10:15;;;;;;;7.10;6.47;;;;;;;;;;5003970;28;20030;-63
2023/05/03 11:12:41;;;;;;;8.10;7.10;;;;;;;;;;5004289;28;20057;-60
2023/05/03 11:15:06;;;;;;;6.72;6.15;;;;;;;;;;5004703;28;20121;-59
2023/05/03 11:17:32;;;;;;;7.72;6.88;;;;;;;;;;5003220;28;20459;-61
2023/05/03 11:19:58;;;;;;;9.48;7.20;;;;;;;;;;5003320;28;20141;-59
2023/05/03 11:22:23;;;;;;;8.18;7.05;;;;;;;;;;4999004;28;20417;-61
2023/05/03 11:24:50;;;;;;;9.45;7.53;;;;;;;;;;5004277;28;20399;-59
2023/05/03 11:27:22;;;;;;;9.25;7.60;;;;;;;;;;5004305;28;20594;-59
2023/05/03 11:29:48;;;;;;;8.70;7.90;;;;;;;;;;5002232;28;20029;-58
2023/05/03 11:32:15;;;;;;;8.10;7.30;;;;;;;;;;5004701;28;20040;-59
2023/05/03 11:34:40;;;;;;;6.60;6.00;;;;;;;;;;5003238;28;20038;-66
2023/05/03 11:37:07;;;;;;;8.32;5.68;;;;;;;;;;5004230;28;20029;-60
2023/05/03 11:39:32;;;;;;;6.72;6.00;;;;;;;;;;5002947;28;20045;-62
2023/05/03 11:42:04;;;;;;;6.03;5.43;;;;;;;;;;5003051;28;20104;-61
2023/05/03 11:44:30;;;;;;;6.70;6.10;;;;;;;;;;5001645;28;20130;-61
2023/05/03 11:46:56;;;;;;;6.28;5.78;;;;;;;;;;5003612;28;20034;-60
2023/05/03 11:49:22;;;;;;;7.00;6.35;;;;;;;;;;5001217;28;20120;-61
2023/05/03 11:51:49;;;;;;;7.85;7.00;;;;;;;;;;5003080;28;20138;-59
2023/05/03 11:54:15;;;;;;;11.05;8.75;;;;;;;;;;5001392;28;20041;-59
2023/05/03 11:56:41;;;;;;;9.88;8.15;;;;;;;;;;4997688;28;20092;-62
2023/05/03 11:59:07;;;;;;;9.43;8.48;;;;;;;;;;5000293;28;20137;-59
2023/05/03 12:01:32;;;;;;;10.15;9.05;;;;;;;;;;5001418;28;20046;-60
2023/05/03 12:04:00;;;;;;;9.48;7.88;;;;;;;;;;5001343;28;20048;-60
2023/05/03 12:06:27;;;;;;;9.45;8.55;;;;;;;;;;5000593;28;20017;-61
2023/05/03 12:08:53;;;;;;;8.93;7.28;;;;;;;;;;5000150;28;20077;-62
2023/05/03 12:11:19;;;;;;;9.68;8.77;;;;;;;;;;5003857;28;20045;-60
2023/05/03 12:13:45;;;;;;;7.75;7.05;;;;;;;;;;5002179;28;20029;-60
2023/05/03 12:16:13;;;;;;;8.90;8.10;;;;;;;;;;5001074;28;20469;-60
2023/05/03 12:18:45;;;;;;;8.98;8.25;;;;;;;;;;5002390;28;20349;-61
2023/05/03 12:21:11;;;;;;;9.73;8.77;;;;;;;;;;4999850;28;20125;-62
2023/05/03 12:23:36;;;;;;;9.50;8.50;;;;;;;;;;4999499;28;20026;-60
2023/05/03 12:26:02;;;;;;;8.45;7.65;;;;;;;;;;4997794;28;20042;-60
2023/05/03 12:28:27;;;;;;;10.25;7.65;;;;;;;;;;5001531;28;20089;-60
2023/05/03 12:30:53;;;;;;;10.57;8.57;;;;;;;;;;4999789;28;20042;-60
2023/05/03 12:33:20;;;;;;;8.18;7.32;;;;;;;;;;5002248;28;20037;-59
2023/05/03 12:35:45;;;;;;;10.60;9.57;;;;;;;;;;5004647;28;20781;-60
2023/05/03 12:38:11;;;;;;;10.52;9.57;;;;;;;;;;5001121;28;20096;-60
2023/05/03 12:40:37;;;;;;;11.98;10.68;;;;;;;;;;5000363;28;20396;-60
2023/05/03 12:43:03;;;;;;;11.95;10.85;;;;;;;;;;5003020;28;20105;-61
2023/05/03 12:45:30;;;;;;;10.70;9.70;;;;;;;;;;5000054;28;20554;-61
2023/05/03 12:47:56;;;;;;;12.40;11.20;;;;;;;;;;5001123;28;20069;-61
2023/05/03 12:50:21;;;;;;;11.18;9.93;;;;;;;;;;5001571;28;20134;-62
2023/05/03 12:52:47;;;;;;;12.13;10.80;;;;;;;;;;5003004;28;20431;-59
2023/05/03 12:55:12;;;;;;;13.25;11.68;;;;;;;;;;5000815;28;20437;-62
2023/05/03 12:57:38;;;;;;;12.30;11.07;;;;;;;;;;4990983;28;20527;-65
2023/05/03 13:00:05;;;;;;;11.98;10.88;;;;;;;;;;5000445;28;20034;-64
2023/05/03 13:02:30;;;;;;;12.57;11.48;;;;;;;;;;5000230;28;20050;-62
2023/05/03 13:04:56;;;;;;;13.13;11.80;;;;;;;;;;5001690;28;20084;-64
2023/05/03 13:07:23;;;;;;;12.90;11.68;;;;;;;;;;5001873;28;20493;-61
2023/05/03 13:09:49;;;;;;;12.68;11.48;;;;;;;;;;5001324;28;20045;-62
2023/05/03 13:12:19;;;;;;;12.85;11.55;;;;;;;;;;5003099;28;20046;-63
2023/05/03 13:14:47;;;;;;;12.98;11.68;;;;;;;;;;4971670;28;20381;-60
2023/05/03 13:17:13;;;;;;;12.27;10.98;;;;;;;;;;4982652;28;20096;-62
2023/05/03 13:19:40;;;;;;;13.82;12.38;;;;;;;;;;4996922;28;20497;-63
2023/05/03 13:22:06;;;;;;;11.77;10.57;;;;;;;;;;4980182;28;20042;-62
2023/05/03 13:24:31;;;;;;;12.90;11.73;;;;;;;;;;4980337;28;20062;-63
2023/05/03 13:26:57;;;;;;;13.30;11.00;;;;;;;;;;4981428;28;20166;-60
2023/05/03 13:29:23;;;;;;;12.43;11.27;;;;;;;;;;4983249;28;20173;-62
2023/05/03 13:31:48;;;;;;;12.13;11.02;;;;;;;;;;4981176;28;20030;-63
2023/05/03 13:34:13;;;;;;;10.02;9.13;;;;;;;;;;4982182;28;20057;-60
2023/05/03 13:36:39;;;;;;;10.52;9.35;;;;;;;;;;4981176;28;20038;-63
2023/05/03 13:39:08;;;;;;;10.20;9.20;;;;;;;;;;4981438;28;20560;-62
2023/05/03 13:41:34;;;;;;;10.50;9.50;;;;;;;;;;4981725;28;20045;-62
2023/05/03 13:43:59;;;;;;;9.73;8.07;;;;;;;;;;4980782;28;20934;-65
2023/05/03 13:46:25;;;;;;;12.32;10.75;;;;;;;;;;4980441;28;20049;-63
2023/05/03 13:48:51;;;;;;;9.73;8.82;;;;;;;;;;4979681;28;20085;-63
2023/05/03 13:51:17;;;;;;;8.88;8.00;;;;;;;;;;4980062;28;20162;-67
2023/05/03 13:53:43;;;;;;;7.78;7.03;;;;;;;;;;4983185;28;20038;-60
2023/05/03 13:56:08;;;;;;;10.32;6.97;;;;;;;;;;4980585;28;20042;-62
2023/05/03 13:58:38;;;;;;;7.32;6.63;;;;;;;;;;4980935;28;20572;-59
2023/05/03 14:01:04;;;;;;;9.50;6.25;;;;;;;;;;4979727;28;20515;-60
2023/05/03 14:03:30;;;;;;;10.88;7.45;;;;;;;;;;4977664;28;20038;-61
2023/05/03 14:05:56;;;;;;;6.90;6.40;;;;;;;;;;4993342;28;20025;-60
2023/05/03 14:08:22;;;;;;;8.18;6.25;;;;;;;;;;4977661;28;20073;-59
2023/05/03 14:10:47;;;;;;;7.10;6.40;;;;;;;;;;4975274;28;20125;-60
2023/05/03 14:13:13;;;;;;;7.57;6.88;;;;;;;;;;4978566;28;20042;-60
2023/05/03 14:15:42;;;;;;;13.00;9.45;;;;;;;;;;4979139;28;20034;-60
2023/05/03 14:18:08;;;;;;;10.13;9.00;;;;;;;;;;4979085;28;20498;-60
2023/05/03 14:20:34;;;;;;;7.05;6.40;;;;;;;;;;4980184;28;20042;-61